sensor_id;sensor_type;location;lat;lon;timestamp;temperature;humidity
19862;DHT22;10093;48.148;8.542;2023-04-03T00:01:28;1.70;99.90
19862;DHT22;10093;48.148;8.542;2023-04-03T00:03:54;1.70;99.90
19862;DHT22;10093;48.148;8.542;2023-04-03T00:06:21;1.60;99.90
19862;DHT22;10093;48.148;8.542;2023-04-03T00:08:47;1.40;99.90
19862;DHT22;10093;48.148;8.542;2023-04-03T00:11:13;1.40;99.90
19862;DHT22;10093;48.148;8.542;2023-04-03T00:13:39;1.50;99.90
19862;DHT22;10093;48.148;8.542;2023-04-03T00:16:06;1.60;99.90
19862;DHT22;10093;48.148;8.542;2023-04-03T00:18:31;1.60;99.90
19862;DHT22;10093;48.148;8.542;2023-04-03T00:20:57;1.60;99.90
19862;DHT22;10093;48.148;8.542;2023-04-03T00:23:23;1.70;99.90
19862;DHT22;10093;48.148;8.542;2023-04-03T00:25:49;1.60;99.90
19862;DHT22;10093;48.148;8.542;2023-04-03T00:28:15;1.50;99.90
19862;DHT22;10093;48.148;8.542;2023-04-03T00:30:41;1.40;99.90
19862;DHT22;10093;48.148;8.542;2023-04-03T00:33:07;1.40;99.90
19862;DHT22;10093;48.148;8.542;2023-04-03T00:35:34;1.40;99.90
19862;DHT22;10093;48.148;8.542;2023-04-03T00:38:00;1.30;99.90
19862;DHT22;10093;48.148;8.542;2023-04-03T00:40:27;1.20;99.90
19862;DHT22;10093;48.148;8.542;2023-04-03T00:42:58;1.20;99.90
19862;DHT22;10093;48.148;8.542;2023-04-03T00:45:26;1.20;99.90
19862;DHT22;10093;48.148;8.542;2023-04-03T00:47:52;1.30;99.90
19862;DHT22;10093;48.148;8.542;2023-04-03T00:50:18;1.30;99.90
19862;DHT22;10093;48.148;8.542;2023-04-03T00:52:44;1.30;99.90
19862;DHT22;10093;48.148;8.542;2023-04-03T00:55:12;1.30;99.90
19862;DHT22;10093;48.148;8.542;2023-04-03T00:57:40;1.30;99.90
19862;DHT22;10093;48.148;8.542;2023-04-03T01:00:13;1.30;99.90
19862;DHT22;10093;48.148;8.542;2023-04-03T01:02:39;1.40;99.90
19862;DHT22;10093;48.148;8.542;2023-04-03T01:05:08;1.40;99.90
19862;DHT22;10093;48.148;8.542;2023-04-03T01:07:34;1.20;99.90
19862;DHT22;10093;48.148;8.542;2023-04-03T01:10:05;1.40;99.90
19862;DHT22;10093;48.148;8.542;2023-04-03T01:12:39;1.50;99.90
19862;DHT22;10093;48.148;8.542;2023-04-03T01:15:10;1.30;99.90
19862;DHT22;10093;48.148;8.542;2023-04-03T01:25:43;1.30;99.90
19862;DHT22;10093;48.148;8.542;2023-04-03T01:28:21;1.20;99.90
19862;DHT22;10093;48.148;8.542;2023-04-03T01:33:34;1.10;99.90
19862;DHT22;10093;48.148;8.542;2023-04-03T01:36:00;1.20;99.90
19862;DHT22;10093;48.148;8.542;2023-04-03T01:38:26;1.30;99.90
19862;DHT22;10093;48.148;8.542;2023-04-03T01:40:52;1.20;99.90
19862;DHT22;10093;48.148;8.542;2023-04-03T01:43:17;1.20;99.90
19862;DHT22;10093;48.148;8.542;2023-04-03T01:45:43;1.30;99.90
19862;DHT22;10093;48.148;8.542;2023-04-03T01:48:08;1.20;99.90
19862;DHT22;10093;48.148;8.542;2023-04-03T01:50:34;1.20;99.90
19862;DHT22;10093;48.148;8.542;2023-04-03T01:53:00;1.20;99.90
19862;DHT22;10093;48.148;8.542;2023-04-03T01:55:25;1.20;99.90
19862;DHT22;10093;48.148;8.542;2023-04-03T01:57:51;1.10;99.90
19862;DHT22;10093;48.148;8.542;2023-04-03T02:00:17;1.20;99.90
19862;DHT22;10093;48.148;8.542;2023-04-03T02:02:42;1.10;99.90
19862;DHT22;10093;48.148;8.542;2023-04-03T02:05:08;1.10;99.90
19862;DHT22;10093;48.148;8.542;2023-04-03T02:07:34;1.20;99.90
19862;DHT22;10093;48.148;8.542;2023-04-03T02:09:59;1.30;99.90
19862;DHT22;10093;48.148;8.542;2023-04-03T02:12:25;1.40;99.90
19862;DHT22;10093;48.148;8.542;2023-04-03T02:14:51;1.50;99.90
19862;DHT22;10093;48.148;8.542;2023-04-03T02:17:17;1.50;99.90
19862;DHT22;10093;48.148;8.542;2023-04-03T02:19:42;1.40;99.90
19862;DHT22;10093;48.148;8.542;2023-04-03T02:22:08;1.30;99.90
19862;DHT22;10093;48.148;8.542;2023-04-03T02:24:34;1.40;99.90
19862;DHT22;10093;48.148;8.542;2023-04-03T02:26:59;1.40;99.90
19862;DHT22;10093;48.148;8.542;2023-04-03T02:29:25;1.30;99.90
19862;DHT22;10093;48.148;8.542;2023-04-03T02:31:51;1.20;99.90
19862;DHT22;10093;48.148;8.542;2023-04-03T02:34:17;1.30;99.90
19862;DHT22;10093;48.148;8.542;2023-04-03T02:36:43;1.20;99.90
19862;DHT22;10093;48.148;8.542;2023-04-03T02:39:09;1.20;99.90
19862;DHT22;10093;48.148;8.542;2023-04-03T02:41:34;1.20;99.90
19862;DHT22;10093;48.148;8.542;2023-04-03T02:44:05;1.10;99.90
19862;DHT22;10093;48.148;8.542;2023-04-03T02:46:32;1.00;99.90
19862;DHT22;10093;48.148;8.542;2023-04-03T02:48:57;1.00;99.90
19862;DHT22;10093;48.148;8.542;2023-04-03T02:51:23;1.00;99.90
19862;DHT22;10093;48.148;8.542;2023-04-03T02:53:50;1.10;99.90
19862;DHT22;10093;48.148;8.542;2023-04-03T02:56:16;1.30;99.90
19862;DHT22;10093;48.148;8.542;2023-04-03T02:58:42;1.30;99.90
19862;DHT22;10093;48.148;8.542;2023-04-03T03:01:08;1.30;99.90
19862;DHT22;10093;48.148;8.542;2023-04-03T03:03:33;1.20;99.90
19862;DHT22;10093;48.148;8.542;2023-04-03T03:06:08;1.10;99.90
19862;DHT22;10093;48.148;8.542;2023-04-03T03:08:34;1.00;99.90
19862;DHT22;10093;48.148;8.542;2023-04-03T03:11:00;1.10;99.90
19862;DHT22;10093;48.148;8.542;2023-04-03T03:13:26;1.00;99.90
19862;DHT22;10093;48.148;8.542;2023-04-03T03:15:52;0.90;99.90
19862;DHT22;10093;48.148;8.542;2023-04-03T03:18:18;1.00;99.90
19862;DHT22;10093;48.148;8.542;2023-04-03T03:20:43;0.90;99.90
19862;DHT22;10093;48.148;8.542;2023-04-03T03:23:09;1.00;99.90
19862;DHT22;10093;48.148;8.542;2023-04-03T03:25:38;0.90;99.90
19862;DHT22;10093;48.148;8.542;2023-04-03T03:28:04;0.90;99.90
19862;DHT22;10093;48.148;8.542;2023-04-03T03:30:30;0.80;99.90
19862;DHT22;10093;48.148;8.542;2023-04-03T03:32:55;0.90;99.90
19862;DHT22;10093;48.148;8.542;2023-04-03T03:35:22;0.80;99.90
19862;DHT22;10093;48.148;8.542;2023-04-03T03:37:48;0.70;99.90
19862;DHT22;10093;48.148;8.542;2023-04-03T03:40:14;0.90;99.90
19862;DHT22;10093;48.148;8.542;2023-04-03T03:42:39;0.90;99.90
19862;DHT22;10093;48.148;8.542;2023-04-03T03:45:06;0.80;99.90
19862;DHT22;10093;48.148;8.542;2023-04-03T03:47:32;0.90;99.90
19862;DHT22;10093;48.148;8.542;2023-04-03T03:49:57;0.80;99.90
19862;DHT22;10093;48.148;8.542;2023-04-03T03:52:23;0.70;99.90
19862;DHT22;10093;48.148;8.542;2023-04-03T03:54:49;0.70;99.90
19862;DHT22;10093;48.148;8.542;2023-04-03T03:57:14;0.80;99.90
19862;DHT22;10093;48.148;8.542;2023-04-03T03:59:40;0.90;99.90
19862;DHT22;10093;48.148;8.542;2023-04-03T04:02:07;0.80;99.90
19862;DHT22;10093;48.148;8.542;2023-04-03T04:04:33;0.90;99.90
19862;DHT22;10093;48.148;8.542;2023-04-03T04:06:59;0.80;99.90
19862;DHT22;10093;48.148;8.542;2023-04-03T04:09:26;0.70;99.90
19862;DHT22;10093;48.148;8.542;2023-04-03T04:11:52;0.60;99.90
19862;DHT22;10093;48.148;8.542;2023-04-03T04:14:17;0.60;99.90
19862;DHT22;10093;48.148;8.542;2023-04-03T04:16:46;0.60;99.90
19862;DHT22;10093;48.148;8.542;2023-04-03T04:19:12;0.60;99.90
19862;DHT22;10093;48.148;8.542;2023-04-03T04:21:38;0.60;99.90
19862;DHT22;10093;48.148;8.542;2023-04-03T04:24:05;0.60;99.90
19862;DHT22;10093;48.148;8.542;2023-04-03T04:26:30;0.60;99.90
19862;DHT22;10093;48.148;8.542;2023-04-03T04:28:56;0.60;99.90
19862;DHT22;10093;48.148;8.542;2023-04-03T04:31:22;0.60;99.90
19862;DHT22;10093;48.148;8.542;2023-04-03T04:33:47;0.70;99.90
19862;DHT22;10093;48.148;8.542;2023-04-03T04:36:13;0.80;99.90
19862;DHT22;10093;48.148;8.542;2023-04-03T04:38:40;0.70;99.90
19862;DHT22;10093;48.148;8.542;2023-04-03T04:41:06;0.70;99.90
19862;DHT22;10093;48.148;8.542;2023-04-03T04:43:31;0.70;99.90
19862;DHT22;10093;48.148;8.542;2023-04-03T04:46:08;0.60;99.90
19862;DHT22;10093;48.148;8.542;2023-04-03T04:48:35;0.60;99.90
19862;DHT22;10093;48.148;8.542;2023-04-03T04:51:01;0.60;99.90
19862;DHT22;10093;48.148;8.542;2023-04-03T04:53:27;0.60;99.90
19862;DHT22;10093;48.148;8.542;2023-04-03T04:55:53;0.60;99.90
19862;DHT22;10093;48.148;8.542;2023-04-03T04:58:19;0.50;99.90
19862;DHT22;10093;48.148;8.542;2023-04-03T05:00:45;0.60;99.90
19862;DHT22;10093;48.148;8.542;2023-04-03T05:03:11;0.60;99.90
19862;DHT22;10093;48.148;8.542;2023-04-03T05:05:36;0.80;99.90
19862;DHT22;10093;48.148;8.542;2023-04-03T05:08:03;0.60;99.90
19862;DHT22;10093;48.148;8.542;2023-04-03T05:10:29;0.60;99.90
19862;DHT22;10093;48.148;8.542;2023-04-03T05:12:55;0.50;99.90
19862;DHT22;10093;48.148;8.542;2023-04-03T05:15:20;0.60;99.90
19862;DHT22;10093;48.148;8.542;2023-04-03T05:17:46;0.60;99.90
19862;DHT22;10093;48.148;8.542;2023-04-03T05:20:12;0.70;99.90
19862;DHT22;10093;48.148;8.542;2023-04-03T05:22:37;0.70;99.90
19862;DHT22;10093;48.148;8.542;2023-04-03T05:25:04;0.70;99.90
19862;DHT22;10093;48.148;8.542;2023-04-03T05:27:29;0.60;99.90
19862;DHT22;10093;48.148;8.542;2023-04-03T05:29:55;0.60;99.90
19862;DHT22;10093;48.148;8.542;2023-04-03T05:32:22;0.70;99.90
19862;DHT22;10093;48.148;8.542;2023-04-03T05:34:48;0.70;99.90
19862;DHT22;10093;48.148;8.542;2023-04-03T05:37:14;0.80;99.90
19862;DHT22;10093;48.148;8.542;2023-04-03T05:39:39;0.90;99.90
19862;DHT22;10093;48.148;8.542;2023-04-03T05:42:07;0.80;99.90
19862;DHT22;10093;48.148;8.542;2023-04-03T05:44:33;0.80;99.90
19862;DHT22;10093;48.148;8.542;2023-04-03T05:46:59;0.70;99.90
19862;DHT22;10093;48.148;8.542;2023-04-03T05:49:24;0.70;99.90
19862;DHT22;10093;48.148;8.542;2023-04-03T05:51:50;0.80;99.90
19862;DHT22;10093;48.148;8.542;2023-04-03T05:54:28;0.70;99.90
19862;DHT22;10093;48.148;8.542;2023-04-03T05:56:54;0.70;99.90
19862;DHT22;10093;48.148;8.542;2023-04-03T05:59:20;0.60;99.90
19862;DHT22;10093;48.148;8.542;2023-04-03T06:01:46;0.60;99.90
19862;DHT22;10093;48.148;8.542;2023-04-03T06:04:12;0.60;99.90
19862;DHT22;10093;48.148;8.542;2023-04-03T06:06:47;0.50;99.90
19862;DHT22;10093;48.148;8.542;2023-04-03T06:09:14;0.40;99.90
19862;DHT22;10093;48.148;8.542;2023-04-03T06:11:40;0.50;99.90
19862;DHT22;10093;48.148;8.542;2023-04-03T06:14:07;0.60;99.90
19862;DHT22;10093;48.148;8.542;2023-04-03T06:16:33;0.50;99.90
19862;DHT22;10093;48.148;8.542;2023-04-03T06:18:59;0.50;99.90
19862;DHT22;10093;48.148;8.542;2023-04-03T06:21:25;0.40;99.90
19862;DHT22;10093;48.148;8.542;2023-04-03T06:23:51;0.40;99.90
19862;DHT22;10093;48.148;8.542;2023-04-03T06:26:17;0.50;99.90
19862;DHT22;10093;48.148;8.542;2023-04-03T06:28:43;0.60;99.90
19862;DHT22;10093;48.148;8.542;2023-04-03T06:31:08;0.60;99.90
19862;DHT22;10093;48.148;8.542;2023-04-03T06:33:34;0.60;99.90
19862;DHT22;10093;48.148;8.542;2023-04-03T06:36:03;0.70;99.90
19862;DHT22;10093;48.148;8.542;2023-04-03T06:38:29;0.60;99.90
19862;DHT22;10093;48.148;8.542;2023-04-03T06:40:55;0.60;99.90
19862;DHT22;10093;48.148;8.542;2023-04-03T06:43:21;0.60;99.90
19862;DHT22;10093;48.148;8.542;2023-04-03T06:45:47;0.50;99.90
19862;DHT22;10093;48.148;8.542;2023-04-03T06:48:13;0.70;99.90
19862;DHT22;10093;48.148;8.542;2023-04-03T06:50:38;0.60;99.90
19862;DHT22;10093;48.148;8.542;2023-04-03T06:53:04;0.60;99.90
19862;DHT22;10093;48.148;8.542;2023-04-03T06:55:30;0.70;99.90
19862;DHT22;10093;48.148;8.542;2023-04-03T06:57:57;0.70;99.90
19862;DHT22;10093;48.148;8.542;2023-04-03T07:00:22;0.70;99.90
19862;DHT22;10093;48.148;8.542;2023-04-03T07:02:48;0.70;99.90
19862;DHT22;10093;48.148;8.542;2023-04-03T07:05:14;0.80;99.90
19862;DHT22;10093;48.148;8.542;2023-04-03T07:07:39;0.80;99.90
19862;DHT22;10093;48.148;8.542;2023-04-03T07:10:07;0.70;99.90
19862;DHT22;10093;48.148;8.542;2023-04-03T07:12:32;0.90;99.90
19862;DHT22;10093;48.148;8.542;2023-04-03T07:14:58;0.90;99.90
19862;DHT22;10093;48.148;8.542;2023-04-03T07:17:24;0.90;99.90
19862;DHT22;10093;48.148;8.542;2023-04-03T07:19:51;1.00;99.90
19862;DHT22;10093;48.148;8.542;2023-04-03T07:22:17;1.10;99.90
19862;DHT22;10093;48.148;8.542;2023-04-03T07:24:43;1.20;99.90
19862;DHT22;10093;48.148;8.542;2023-04-03T07:27:09;1.10;99.90
19862;DHT22;10093;48.148;8.542;2023-04-03T07:29:35;0.80;99.90
19862;DHT22;10093;48.148;8.542;2023-04-03T07:32:02;0.90;99.90
19862;DHT22;10093;48.148;8.542;2023-04-03T07:34:28;0.80;99.90
19862;DHT22;10093;48.148;8.542;2023-04-03T07:36:53;0.80;99.90
19862;DHT22;10093;48.148;8.542;2023-04-03T07:39:20;0.80;99.90
19862;DHT22;10093;48.148;8.542;2023-04-03T07:41:45;0.80;99.90
19862;DHT22;10093;48.148;8.542;2023-04-03T07:44:11;1.10;99.90
19862;DHT22;10093;48.148;8.542;2023-04-03T07:46:37;1.10;99.90
19862;DHT22;10093;48.148;8.542;2023-04-03T07:49:03;1.20;99.90
19862;DHT22;10093;48.148;8.542;2023-04-03T07:51:29;1.50;99.90
19862;DHT22;10093;48.148;8.542;2023-04-03T07:53:55;1.90;99.90
19862;DHT22;10093;48.148;8.542;2023-04-03T07:56:21;2.10;99.90
19862;DHT22;10093;48.148;8.542;2023-04-03T07:58:47;2.50;99.90
19862;DHT22;10093;48.148;8.542;2023-04-03T08:01:12;2.30;99.90
19862;DHT22;10093;48.148;8.542;2023-04-03T08:03:39;2.40;99.90
19862;DHT22;10093;48.148;8.542;2023-04-03T08:06:06;2.40;99.90
19862;DHT22;10093;48.148;8.542;2023-04-03T08:08:32;2.50;99.90
19862;DHT22;10093;48.148;8.542;2023-04-03T08:11:00;2.80;99.90
19862;DHT22;10093;48.148;8.542;2023-04-03T08:13:26;2.70;99.90
19862;DHT22;10093;48.148;8.542;2023-04-03T08:15:52;2.30;99.90
19862;DHT22;10093;48.148;8.542;2023-04-03T08:18:18;2.80;99.90
19862;DHT22;10093;48.148;8.542;2023-04-03T08:20:47;3.50;99.90
19862;DHT22;10093;48.148;8.542;2023-04-03T08:23:13;3.00;99.90
19862;DHT22;10093;48.148;8.542;2023-04-03T08:25:41;3.30;99.90
19862;DHT22;10093;48.148;8.542;2023-04-03T08:28:08;3.50;99.90
19862;DHT22;10093;48.148;8.542;2023-04-03T08:30:34;3.80;99.90
19862;DHT22;10093;48.148;8.542;2023-04-03T08:33:03;3.50;99.90
19862;DHT22;10093;48.148;8.542;2023-04-03T08:35:28;3.30;99.90
19862;DHT22;10093;48.148;8.542;2023-04-03T08:37:54;2.80;99.90
19862;DHT22;10093;48.148;8.542;2023-04-03T08:40:19;2.60;99.90
19862;DHT22;10093;48.148;8.542;2023-04-03T08:45:53;2.90;99.90
19862;DHT22;10093;48.148;8.542;2023-04-03T08:48:30;3.50;99.90
19862;DHT22;10093;48.148;8.542;2023-04-03T08:51:00;3.40;99.90
19862;DHT22;10093;48.148;8.542;2023-04-03T08:53:34;2.70;99.90
19862;DHT22;10093;48.148;8.542;2023-04-03T08:56:05;3.00;99.90
19862;DHT22;10093;48.148;8.542;2023-04-03T08:58:50;2.90;99.90
19862;DHT22;10093;48.148;8.542;2023-04-03T09:01:23;3.00;99.90
19862;DHT22;10093;48.148;8.542;2023-04-03T09:03:50;3.20;99.90
19862;DHT22;10093;48.148;8.542;2023-04-03T09:06:34;3.00;99.90
19862;DHT22;10093;48.148;8.542;2023-04-03T09:11:54;3.20;99.90
19862;DHT22;10093;48.148;8.542;2023-04-03T09:14:39;3.60;99.90
19862;DHT22;10093;48.148;8.542;2023-04-03T09:20:33;4.00;99.90
19862;DHT22;10093;48.148;8.542;2023-04-03T09:25:52;3.80;99.90
19862;DHT22;10093;48.148;8.542;2023-04-03T09:28:19;3.50;99.90
19862;DHT22;10093;48.148;8.542;2023-04-03T09:30:45;3.80;99.90
19862;DHT22;10093;48.148;8.542;2023-04-03T09:33:12;3.90;99.90
19862;DHT22;10093;48.148;8.542;2023-04-03T09:35:40;3.60;99.90
19862;DHT22;10093;48.148;8.542;2023-04-03T09:40:40;3.00;99.90
19862;DHT22;10093;48.148;8.542;2023-04-03T09:45:52;3.80;99.90
19862;DHT22;10093;48.148;8.542;2023-04-03T09:48:23;4.20;99.90
19862;DHT22;10093;48.148;8.542;2023-04-03T09:55:56;4.30;99.90
19862;DHT22;10093;48.148;8.542;2023-04-03T09:58:31;3.90;99.90
19862;DHT22;10093;48.148;8.542;2023-04-03T10:01:00;3.40;99.90
19862;DHT22;10093;48.148;8.542;2023-04-03T10:03:30;3.70;99.90
19862;DHT22;10093;48.148;8.542;2023-04-03T10:05:58;3.80;99.90
19862;DHT22;10093;48.148;8.542;2023-04-03T10:08:26;3.70;99.90
19862;DHT22;10093;48.148;8.542;2023-04-03T10:11:16;3.60;99.90
19862;DHT22;10093;48.148;8.542;2023-04-03T10:13:52;4.30;99.90
19862;DHT22;10093;48.148;8.542;2023-04-03T10:16:27;4.40;99.90
19862;DHT22;10093;48.148;8.542;2023-04-03T10:19:21;4.30;99.90
19862;DHT22;10093;48.148;8.542;2023-04-03T10:30:40;4.20;99.90
19862;DHT22;10093;48.148;8.542;2023-04-03T10:36:04;4.30;99.90
19862;DHT22;10093;48.148;8.542;2023-04-03T10:49:35;4.30;99.90
19862;DHT22;10093;48.148;8.542;2023-04-03T10:52:33;4.60;99.90
19862;DHT22;10093;48.148;8.542;2023-04-03T10:55:34;3.70;99.90
19862;DHT22;10093;48.148;8.542;2023-04-03T10:57:54;4.00;99.90
19862;DHT22;10093;48.148;8.542;2023-04-03T11:03:00;3.60;99.90
19862;DHT22;10093;48.148;8.542;2023-04-03T11:10:57;4.80;99.90
19862;DHT22;10093;48.148;8.542;2023-04-03T11:13:33;5.20;99.90
19862;DHT22;10093;48.148;8.542;2023-04-03T11:16:00;5.10;99.90
19862;DHT22;10093;48.148;8.542;2023-04-03T11:18:45;5.10;99.90
19862;DHT22;10093;48.148;8.542;2023-04-03T11:21:19;4.80;99.90
19862;DHT22;10093;48.148;8.542;2023-04-03T11:23:47;4.50;99.90
19862;DHT22;10093;48.148;8.542;2023-04-03T11:26:19;4.70;99.90
19862;DHT22;10093;48.148;8.542;2023-04-03T11:28:46;5.00;99.90
19862;DHT22;10093;48.148;8.542;2023-04-03T11:34:23;5.50;99.90
19862;DHT22;10093;48.148;8.542;2023-04-03T11:36:55;5.70;99.90
19862;DHT22;10093;48.148;8.542;2023-04-03T11:39:29;5.40;99.90
19862;DHT22;10093;48.148;8.542;2023-04-03T11:42:33;5.10;99.90
19862;DHT22;10093;48.148;8.542;2023-04-03T12:03:30;5.10;99.90
19862;DHT22;10093;48.148;8.542;2023-04-03T12:24:34;4.60;99.90
19862;DHT22;10093;48.148;8.542;2023-04-03T12:29:36;4.10;99.90
19862;DHT22;10093;48.148;8.542;2023-04-03T12:51:05;4.30;99.90
19862;DHT22;10093;48.148;8.542;2023-04-03T12:53:37;4.90;99.90
19862;DHT22;10093;48.148;8.542;2023-04-03T12:56:25;4.90;99.90
19862;DHT22;10093;48.148;8.542;2023-04-03T12:58:53;5.00;99.90
19862;DHT22;10093;48.148;8.542;2023-04-03T13:01:24;5.40;99.90
19862;DHT22;10093;48.148;8.542;2023-04-03T13:03:55;4.80;99.90
19862;DHT22;10093;48.148;8.542;2023-04-03T13:06:28;4.70;99.90
19862;DHT22;10093;48.148;8.542;2023-04-03T13:08:58;4.40;99.90
19862;DHT22;10093;48.148;8.542;2023-04-03T13:11:30;4.20;99.90
19862;DHT22;10093;48.148;8.542;2023-04-03T13:14:02;4.50;99.90
19862;DHT22;10093;48.148;8.542;2023-04-03T13:16:30;4.40;99.90
19862;DHT22;10093;48.148;8.542;2023-04-03T13:18:57;4.70;99.90
19862;DHT22;10093;48.148;8.542;2023-04-03T13:21:28;4.60;99.90
19862;DHT22;10093;48.148;8.542;2023-04-03T13:23:59;4.60;99.90
19862;DHT22;10093;48.148;8.542;2023-04-03T13:26:29;4.40;99.90
19862;DHT22;10093;48.148;8.542;2023-04-03T13:29:04;4.40;99.90
19862;DHT22;10093;48.148;8.542;2023-04-03T13:31:38;4.20;99.90
19862;DHT22;10093;48.148;8.542;2023-04-03T13:34:13;4.20;99.90
19862;DHT22;10093;48.148;8.542;2023-04-03T13:37:01;4.10;99.90
19862;DHT22;10093;48.148;8.542;2023-04-03T13:39:32;4.50;99.90
19862;DHT22;10093;48.148;8.542;2023-04-03T13:42:00;4.60;99.90
19862;DHT22;10093;48.148;8.542;2023-04-03T13:44:34;4.80;99.90
19862;DHT22;10093;48.148;8.542;2023-04-03T13:47:19;5.00;99.90
19862;DHT22;10093;48.148;8.542;2023-04-03T13:50:23;4.80;99.90
19862;DHT22;10093;48.148;8.542;2023-04-03T13:52:59;4.30;99.90
19862;DHT22;10093;48.148;8.542;2023-04-03T13:55:32;4.60;99.90
19862;DHT22;10093;48.148;8.542;2023-04-03T14:00:46;4.40;99.90
19862;DHT22;10093;48.148;8.542;2023-04-03T14:03:17;4.30;99.90
19862;DHT22;10093;48.148;8.542;2023-04-03T14:05:44;4.40;99.90
19862;DHT22;10093;48.148;8.542;2023-04-03T14:08:11;4.50;99.90
19862;DHT22;10093;48.148;8.542;2023-04-03T14:10:37;4.50;99.90
19862;DHT22;10093;48.148;8.542;2023-04-03T14:13:03;4.60;99.90
19862;DHT22;10093;48.148;8.542;2023-04-03T14:15:30;4.70;99.90
19862;DHT22;10093;48.148;8.542;2023-04-03T14:17:57;4.70;99.90
19862;DHT22;10093;48.148;8.542;2023-04-03T14:20:25;4.40;99.90
19862;DHT22;10093;48.148;8.542;2023-04-03T14:22:52;4.10;99.90
19862;DHT22;10093;48.148;8.542;2023-04-03T14:25:20;4.00;99.90
19862;DHT22;10093;48.148;8.542;2023-04-03T14:27:48;4.20;99.90
19862;DHT22;10093;48.148;8.542;2023-04-03T14:30:26;4.50;99.90
19862;DHT22;10093;48.148;8.542;2023-04-03T14:32:53;4.00;99.90
19862;DHT22;10093;48.148;8.542;2023-04-03T14:35:19;4.20;99.90
19862;DHT22;10093;48.148;8.542;2023-04-03T14:37:46;4.10;99.90
19862;DHT22;10093;48.148;8.542;2023-04-03T14:40:19;4.30;99.90
19862;DHT22;10093;48.148;8.542;2023-04-03T14:42:45;4.00;99.90
19862;DHT22;10093;48.148;8.542;2023-04-03T14:45:13;3.90;99.90
19862;DHT22;10093;48.148;8.542;2023-04-03T14:47:46;4.00;99.90
19862;DHT22;10093;48.148;8.542;2023-04-03T14:50:19;4.00;99.90
19862;DHT22;10093;48.148;8.542;2023-04-03T14:52:47;4.10;99.90
19862;DHT22;10093;48.148;8.542;2023-04-03T14:55:15;3.90;99.90
19862;DHT22;10093;48.148;8.542;2023-04-03T14:57:41;4.00;99.90
19862;DHT22;10093;48.148;8.542;2023-04-03T15:00:12;4.10;99.90
19862;DHT22;10093;48.148;8.542;2023-04-03T15:02:38;4.20;99.90
19862;DHT22;10093;48.148;8.542;2023-04-03T15:05:06;4.00;99.90
19862;DHT22;10093;48.148;8.542;2023-04-03T15:07:35;4.20;99.90
19862;DHT22;10093;48.148;8.542;2023-04-03T15:10:14;4.00;99.90
19862;DHT22;10093;48.148;8.542;2023-04-03T15:12:41;4.10;99.90
19862;DHT22;10093;48.148;8.542;2023-04-03T15:15:07;3.80;99.90
19862;DHT22;10093;48.148;8.542;2023-04-03T15:17:33;3.80;99.90
19862;DHT22;10093;48.148;8.542;2023-04-03T15:20:00;4.20;99.90
19862;DHT22;10093;48.148;8.542;2023-04-03T15:22:25;4.40;99.90
19862;DHT22;10093;48.148;8.542;2023-04-03T15:24:51;4.30;99.90
19862;DHT22;10093;48.148;8.542;2023-04-03T15:27:17;3.90;99.90
19862;DHT22;10093;48.148;8.542;2023-04-03T15:29:44;3.80;99.90
19862;DHT22;10093;48.148;8.542;2023-04-03T15:32:11;3.70;99.90
19862;DHT22;10093;48.148;8.542;2023-04-03T15:34:37;3.60;99.90
19862;DHT22;10093;48.148;8.542;2023-04-03T15:37:03;3.70;99.90
19862;DHT22;10093;48.148;8.542;2023-04-03T15:39:29;3.50;99.90
19862;DHT22;10093;48.148;8.542;2023-04-03T15:41:55;3.50;99.90
19862;DHT22;10093;48.148;8.542;2023-04-03T15:44:21;3.60;99.90
19862;DHT22;10093;48.148;8.542;2023-04-03T15:46:47;3.60;99.90
19862;DHT22;10093;48.148;8.542;2023-04-03T15:49:18;3.70;99.90
19862;DHT22;10093;48.148;8.542;2023-04-03T15:51:44;3.70;99.90
19862;DHT22;10093;48.148;8.542;2023-04-03T15:54:10;3.70;99.90
19862;DHT22;10093;48.148;8.542;2023-04-03T15:56:35;4.00;99.90
19862;DHT22;10093;48.148;8.542;2023-04-03T15:59:01;3.60;99.90
19862;DHT22;10093;48.148;8.542;2023-04-03T16:01:27;3.60;99.90
19862;DHT22;10093;48.148;8.542;2023-04-03T16:03:52;3.60;99.90
19862;DHT22;10093;48.148;8.542;2023-04-03T16:06:18;3.70;99.90
19862;DHT22;10093;48.148;8.542;2023-04-03T16:08:45;3.60;99.90
19862;DHT22;10093;48.148;8.542;2023-04-03T16:11:11;3.40;99.90
19862;DHT22;10093;48.148;8.542;2023-04-03T16:13:37;3.40;99.90
19862;DHT22;10093;48.148;8.542;2023-04-03T16:16:03;3.40;99.90
19862;DHT22;10093;48.148;8.542;2023-04-03T16:18:30;3.50;99.90
19862;DHT22;10093;48.148;8.542;2023-04-03T16:20:56;3.50;99.90
19862;DHT22;10093;48.148;8.542;2023-04-03T16:23:23;3.30;99.90
19862;DHT22;10093;48.148;8.542;2023-04-03T16:25:49;3.20;99.90
19862;DHT22;10093;48.148;8.542;2023-04-03T16:28:16;3.20;99.90
19862;DHT22;10093;48.148;8.542;2023-04-03T16:30:46;3.40;99.90
19862;DHT22;10093;48.148;8.542;2023-04-03T16:33:12;3.50;99.90
19862;DHT22;10093;48.148;8.542;2023-04-03T16:35:38;3.70;99.90
19862;DHT22;10093;48.148;8.542;2023-04-03T16:38:04;3.80;99.90
19862;DHT22;10093;48.148;8.542;2023-04-03T16:40:30;3.50;99.90
19862;DHT22;10093;48.148;8.542;2023-04-03T16:42:56;3.60;99.90
19862;DHT22;10093;48.148;8.542;2023-04-03T16:45:22;3.60;99.90
19862;DHT22;10093;48.148;8.542;2023-04-03T16:47:48;3.40;99.90
19862;DHT22;10093;48.148;8.542;2023-04-03T16:50:14;3.40;99.90
19862;DHT22;10093;48.148;8.542;2023-04-03T16:52:39;3.30;99.90
19862;DHT22;10093;48.148;8.542;2023-04-03T16:55:05;3.30;99.90
19862;DHT22;10093;48.148;8.542;2023-04-03T16:57:31;3.30;99.90
19862;DHT22;10093;48.148;8.542;2023-04-03T16:59:57;3.30;99.90
19862;DHT22;10093;48.148;8.542;2023-04-03T17:02:23;3.50;99.90
19862;DHT22;10093;48.148;8.542;2023-04-03T17:04:53;3.50;99.90
19862;DHT22;10093;48.148;8.542;2023-04-03T17:07:20;3.40;99.90
19862;DHT22;10093;48.148;8.542;2023-04-03T17:09:47;3.10;99.90
19862;DHT22;10093;48.148;8.542;2023-04-03T17:12:13;3.10;99.90
19862;DHT22;10093;48.148;8.542;2023-04-03T17:14:39;3.20;99.90
19862;DHT22;10093;48.148;8.542;2023-04-03T17:17:04;3.10;99.90
19862;DHT22;10093;48.148;8.542;2023-04-03T17:19:30;3.00;99.90
19862;DHT22;10093;48.148;8.542;2023-04-03T17:21:57;2.90;99.90
19862;DHT22;10093;48.148;8.542;2023-04-03T17:24:23;2.90;99.90
19862;DHT22;10093;48.148;8.542;2023-04-03T17:26:49;2.80;99.90
19862;DHT22;10093;48.148;8.542;2023-04-03T17:29:15;2.80;99.90
19862;DHT22;10093;48.148;8.542;2023-04-03T17:31:40;2.90;99.90
19862;DHT22;10093;48.148;8.542;2023-04-03T17:34:06;2.90;99.90
19862;DHT22;10093;48.148;8.542;2023-04-03T17:36:33;2.80;99.90
19862;DHT22;10093;48.148;8.542;2023-04-03T17:38:58;2.80;99.90
19862;DHT22;10093;48.148;8.542;2023-04-03T17:41:24;2.90;99.90
19862;DHT22;10093;48.148;8.542;2023-04-03T17:43:51;2.80;99.90
19862;DHT22;10093;48.148;8.542;2023-04-03T17:46:17;2.80;99.90
19862;DHT22;10093;48.148;8.542;2023-04-03T17:48:43;2.80;99.90
19862;DHT22;10093;48.148;8.542;2023-04-03T17:51:15;2.80;99.90
19862;DHT22;10093;48.148;8.542;2023-04-03T17:53:41;2.80;99.90
19862;DHT22;10093;48.148;8.542;2023-04-03T17:56:14;2.80;99.90
19862;DHT22;10093;48.148;8.542;2023-04-03T17:58:40;2.80;99.90